Mary Alice — WCX9570 — position and weather

sailwx.info

Track history (hours):
 
Tides and Currents Weather Stations Pressure Air Temp Water Temp Dewpoint Dewpoint Depression Visibility Wind Speed Wind Dir Waves Ship Positions

Mary Alice

Owner: Donjon Marine Co., Inc., HILLSIDE, NJ. More information available from US FCC via Universal Licensing System and Coast Guard Vessel Documentation Center.

Last reported at 2016-May-06 10:27 UTC. Time now 2016-May-06 11:13 UTC.
Position N 40°42' W 074°09'.

Length 21 m; draft 4.8 m.

Type: Towing. MMSI: 366744020.

Date/timePositionNaut miles runAvg speedWind from/ knotsBaromVisibWave heightAir tempDewpointWater temp
2016-May-06 10:27N 40°42' W 074°09'0 0.0
2016-May-06 09:33N 40°42' W 074°09'0 0.0
2016-May-06 05:31N 40°42' W 074°09'0 0.0
2016-May-06 04:24N 40°42' W 074°09'0 0.0
2016-May-06 03:16N 40°42' W 074°09'0 0.0
2016-May-06 02:32N 40°42' W 074°09'0 0.0
2016-May-06 01:33N 40°42' W 074°09'0 0.0
2016-May-05 23:33N 40°42' W 074°09'0 0.0
2016-May-05 22:09N 40°42' W 074°09'0 0.0
2016-May-05 21:32N 40°42' W 074°09'0 0.0
2016-May-05 20:14N 40°42' W 074°09'0 0.0
2016-May-05 19:27N 40°42' W 074°09'3 3.5
2016-May-05 18:33N 40°39' W 074°09'13 0.6
2016-May-04 20:28N 40°28' W 074°01'1 0.2
2016-May-04 14:23N 40°29' W 074°00'3 1.3
2016-May-04 12:28N 40°28' W 074°04'1 0.2
2016-May-04 06:20N 40°28' W 074°02'1 1.2
2016-May-04 05:30N 40°28' W 074°04'1 0.7
2016-May-04 04:10N 40°29' W 074°02'2 0.5
2016-May-03 23:10N 40°29' W 073°59'1 1.0
2016-May-03 22:04N 40°29' W 074°01'1 0.9
2016-May-03 20:33N 40°28' W 074°01'1 0.6
2016-May-03 18:32N 40°29' W 074°01'0 0.0
2016-May-03 17:27N 40°29' W 074°01'2 1.7
2016-May-03 16:21N 40°28' W 074°03'1 0.2
2016-May-03 09:31N 40°28' W 074°01'1 0.2
2016-May-03 03:08N 40°28' W 074°02'2 3.8
2016-May-03 02:33N 40°29' W 074°05'0 0.1
2016-May-03 00:28N 40°29' W 074°05'4 0.8
2016-May-02 19:25N 40°29' W 073°60'0 0.1
2016-May-02 13:33N 40°29' W 073°59'1 1.2
2016-May-02 12:28N 40°29' W 074°01'1 1.2
2016-May-02 11:33N 40°28' W 074°02'2 1.6
2016-May-02 10:29N 40°29' W 074°04'1 0.5
2016-May-02 08:33N 40°29' W 074°06'5 0.8
2016-May-02 02:25N 40°29' W 073°59'3 1.6
2016-May-02 00:19N 40°28' W 074°03'1 0.5
2016-May-01 23:12N 40°28' W 074°03'2 3.2
2016-May-01 22:33N 40°29' W 074°05'3 0.3
2016-May-01 09:31N 40°29' W 074°01'0 0.1
2016-May-01 08:33N 40°29' W 074°01'2 1.5
2016-May-01 07:33N 40°28' W 074°03'0 0.2
2016-May-01 06:32N 40°28' W 074°03'2 1.8
2016-May-01 05:30N 40°29' W 074°05'1 0.7
2016-May-01 04:11N 40°28' W 074°04'5 8.4
2016-May-01 03:33N 40°28' W 073°57'2 0.7
2016-May-01 00:28N 40°29' W 073°59'1 1.2
2016-Apr-30 23:30N 40°29' W 074°01'2 1.8
2016-Apr-30 22:31N 40°28' W 074°03'3 3.5
2016-Apr-30 21:32N 40°30' W 074°07'3 3.0
2016-Apr-30 20:24N 40°28' W 074°03'7 7.0
2016-Apr-30 19:26N 40°35' W 074°02'5 5.3
2016-Apr-30 18:33N 40°39' W 074°06'3 2.9
2016-Apr-30 17:32N 40°41' W 074°08'0 0.0
2016-Apr-30 16:32N 40°41' W 074°08'0 0.2
2016-Apr-30 15:33N 40°42' W 074°08'0 0.3
2016-Apr-30 14:33N 40°42' W 074°09'1 0.5
2016-Apr-30 11:33N 40°40' W 074°08'2 0.9
2016-Apr-30 09:33N 40°39' W 074°07'0 0.0
2016-Apr-30 08:28N 40°39' W 074°07'3 3.1
2016-Apr-30 07:33N 40°42' W 074°08'0 0.0
2016-Apr-30 06:32N 40°42' W 074°08'0 0.0
2016-Apr-30 05:33N 40°42' W 074°08'0 0.0
2016-Apr-30 04:33N 40°42' W 074°08'1 0.5
2016-Apr-30 03:33N 40°41' W 074°08'6 5.6
2016-Apr-30 02:33N 40°37' W 074°03'9 1.4
2016-Apr-29 20:29N 40°29' W 073°59'2 1.3
2016-Apr-29 19:10N 40°29' W 074°01'1 0.8
2016-Apr-29 18:19N 40°28' W 074°02'2 0.3
2016-Apr-29 13:30N 40°29' W 074°00'1 0.9
2016-Apr-29 12:11N 40°29' W 074°02'1 1.3
2016-Apr-29 11:19N 40°28' W 074°03'0 0.0
2016-Apr-28 18:12N 40°28' W 074°03'1 1.4
2016-Apr-28 17:12N 40°29' W 074°01'6 0.7
2016-Apr-28 08:29N 40°25' W 073°54'6 4.7
2016-Apr-28 07:15N 40°20' W 073°52'11 6.4
2016-Apr-28 05:33N 40°29' W 073°59'3 1.2
2016-Apr-28 03:07N 40°28' W 074°03'0 0.9
2016-Apr-28 02:33N 40°28' W 074°04'3 0.2
2016-Apr-27 14:33N 40°29' W 074°00'2 0.1
2016-Apr-27 03:30N 40°28' W 074°01'2 0.4
2016-Apr-26 22:33N 40°29' W 074°00'3 2.8
2016-Apr-26 21:30N 40°29' W 074°04'3 0.4
2016-Apr-26 15:29N 40°29' W 074°01'  
Track history (hours):
 
Tides and Currents Weather Stations Pressure Air Temp Water Temp Dewpoint Dewpoint Depression Visibility Wind Speed Wind Dir Waves Ship Positions

Mary Alice

Owner: Donjon Marine Co., Inc., HILLSIDE, NJ. More information available from US FCC via Universal Licensing System and Coast Guard Vessel Documentation Center.

Last reported at 2016-May-06 10:27 UTC. Time now 2016-May-06 11:13 UTC.
Position N 40°42' W 074°09'.

Length 21 m; draft 4.8 m.

Type: Towing. MMSI: 366744020.

Date/timePositionNaut miles runAvg speedWind from/ knotsBaromVisibWave heightAir tempDewpointWater temp
2016-May-06 10:27N 40°42' W 074°09'0 0.0
2016-May-06 09:33N 40°42' W 074°09'0 0.0
2016-May-06 05:31N 40°42' W 074°09'0 0.0
2016-May-06 04:24N 40°42' W 074°09'0 0.0
2016-May-06 03:16N 40°42' W 074°09'0 0.0
2016-May-06 02:32N 40°42' W 074°09'0 0.0
2016-May-06 01:33N 40°42' W 074°09'0 0.0
2016-May-05 23:33N 40°42' W 074°09'0 0.0
2016-May-05 22:09N 40°42' W 074°09'0 0.0
2016-May-05 21:32N 40°42' W 074°09'0 0.0
2016-May-05 20:14N 40°42' W 074°09'0 0.0
2016-May-05 19:27N 40°42' W 074°09'3 3.5
2016-May-05 18:33N 40°39' W 074°09'13 0.6
2016-May-04 20:28N 40°28' W 074°01'1 0.2
2016-May-04 14:23N 40°29' W 074°00'3 1.3
2016-May-04 12:28N 40°28' W 074°04'1 0.2
2016-May-04 06:20N 40°28' W 074°02'1 1.2
2016-May-04 05:30N 40°28' W 074°04'1 0.7
2016-May-04 04:10N 40°29' W 074°02'2 0.5
2016-May-03 23:10N 40°29' W 073°59'1 1.0
2016-May-03 22:04N 40°29' W 074°01'1 0.9
2016-May-03 20:33N 40°28' W 074°01'1 0.6
2016-May-03 18:32N 40°29' W 074°01'0 0.0
2016-May-03 17:27N 40°29' W 074°01'2 1.7
2016-May-03 16:21N 40°28' W 074°03'1 0.2
2016-May-03 09:31N 40°28' W 074°01'1 0.2
2016-May-03 03:08N 40°28' W 074°02'2 3.8
2016-May-03 02:33N 40°29' W 074°05'0 0.1
2016-May-03 00:28N 40°29' W 074°05'4 0.8
2016-May-02 19:25N 40°29' W 073°60'0 0.1
2016-May-02 13:33N 40°29' W 073°59'1 1.2
2016-May-02 12:28N 40°29' W 074°01'1 1.2
2016-May-02 11:33N 40°28' W 074°02'2 1.6
2016-May-02 10:29N 40°29' W 074°04'1 0.5
2016-May-02 08:33N 40°29' W 074°06'5 0.8
2016-May-02 02:25N 40°29' W 073°59'3 1.6
2016-May-02 00:19N 40°28' W 074°03'1 0.5
2016-May-01 23:12N 40°28' W 074°03'2 3.2
2016-May-01 22:33N 40°29' W 074°05'3 0.3
2016-May-01 09:31N 40°29' W 074°01'0 0.1
2016-May-01 08:33N 40°29' W 074°01'2 1.5
2016-May-01 07:33N 40°28' W 074°03'0 0.2
2016-May-01 06:32N 40°28' W 074°03'2 1.8
2016-May-01 05:30N 40°29' W 074°05'1 0.7
2016-May-01 04:11N 40°28' W 074°04'5 8.4
2016-May-01 03:33N 40°28' W 073°57'2 0.7
2016-May-01 00:28N 40°29' W 073°59'1 1.2
2016-Apr-30 23:30N 40°29' W 074°01'2 1.8
2016-Apr-30 22:31N 40°28' W 074°03'3 3.5
2016-Apr-30 21:32N 40°30' W 074°07'3 3.0
2016-Apr-30 20:24N 40°28' W 074°03'7 7.0
2016-Apr-30 19:26N 40°35' W 074°02'5 5.3
2016-Apr-30 18:33N 40°39' W 074°06'3 2.9
2016-Apr-30 17:32N 40°41' W 074°08'0 0.0
2016-Apr-30 16:32N 40°41' W 074°08'0 0.2
2016-Apr-30 15:33N 40°42' W 074°08'0 0.3
2016-Apr-30 14:33N 40°42' W 074°09'1 0.5
2016-Apr-30 11:33N 40°40' W 074°08'2 0.9
2016-Apr-30 09:33N 40°39' W 074°07'0 0.0
2016-Apr-30 08:28N 40°39' W 074°07'3 3.1
2016-Apr-30 07:33N 40°42' W 074°08'0 0.0
2016-Apr-30 06:32N 40°42' W 074°08'0 0.0
2016-Apr-30 05:33N 40°42' W 074°08'0 0.0
2016-Apr-30 04:33N 40°42' W 074°08'1 0.5
2016-Apr-30 03:33N 40°41' W 074°08'6 5.6
2016-Apr-30 02:33N 40°37' W 074°03'9 1.4
2016-Apr-29 20:29N 40°29' W 073°59'2 1.3
2016-Apr-29 19:10N 40°29' W 074°01'1 0.8
2016-Apr-29 18:19N 40°28' W 074°02'2 0.3
2016-Apr-29 13:30N 40°29' W 074°00'1 0.9
2016-Apr-29 12:11N 40°29' W 074°02'1 1.3
2016-Apr-29 11:19N 40°28' W 074°03'0 0.0
2016-Apr-28 18:12N 40°28' W 074°03'1 1.4
2016-Apr-28 17:12N 40°29' W 074°01'6 0.7
2016-Apr-28 08:29N 40°25' W 073°54'6 4.7
2016-Apr-28 07:15N 40°20' W 073°52'11 6.4
2016-Apr-28 05:33N 40°29' W 073°59'3 1.2
2016-Apr-28 03:07N 40°28' W 074°03'0 0.9
2016-Apr-28 02:33N 40°28' W 074°04'3 0.2
2016-Apr-27 14:33N 40°29' W 074°00'2 0.1
2016-Apr-27 03:30N 40°28' W 074°01'2 0.4
2016-Apr-26 22:33N 40°29' W 074°00'3 2.8
2016-Apr-26 21:30N 40°29' W 074°04'3 0.4
2016-Apr-26 15:29N 40°29' W 074°01'  

Dump ship's entire track history